createdAt,value
2018-12-27T00:03:01.708Z,24.10
2018-12-27T00:06:06.823Z,24.37
2018-12-27T00:09:12.050Z,24.50
2018-12-27T00:12:17.153Z,23.30
2018-12-27T00:15:22.283Z,26.83
2018-12-27T00:18:27.414Z,24.90
2018-12-27T00:21:32.525Z,27.10
2018-12-27T00:24:37.825Z,24.10
2018-12-27T00:27:42.937Z,28.50
2018-12-27T00:30:48.255Z,24.07
2018-12-27T00:33:53.570Z,26.30
2018-12-27T00:36:58.914Z,23.37
2018-12-27T00:40:04.273Z,23.37
2018-12-27T00:43:09.615Z,25.30
2018-12-27T00:46:14.939Z,26.80
2018-12-27T00:49:20.229Z,25.77
2018-12-27T00:52:25.529Z,26.63
2018-12-27T00:55:30.839Z,28.63
2018-12-27T00:58:36.202Z,27.00
2018-12-27T01:01:41.517Z,24.63
2018-12-27T01:04:46.822Z,25.13
2018-12-27T01:07:52.125Z,28.70
2018-12-27T01:10:57.467Z,33.90
2018-12-27T01:14:02.765Z,28.07
2018-12-27T01:17:08.146Z,33.43
2018-12-27T01:20:13.462Z,38.73
2018-12-27T01:23:18.777Z,37.60
2018-12-27T01:26:24.143Z,35.77
2018-12-27T01:29:29.475Z,30.37
2018-12-27T01:32:34.810Z,37.03
2018-12-27T01:35:40.123Z,33.43
2018-12-27T01:38:45.436Z,27.83
2018-12-27T01:41:50.741Z,26.73
2018-12-27T01:44:56.061Z,30.93
2018-12-27T01:48:01.411Z,35.83
2018-12-27T01:51:06.756Z,33.10
2018-12-27T01:54:12.063Z,34.37
2018-12-27T01:57:17.412Z,25.93
2018-12-27T02:00:22.737Z,35.33
2018-12-27T02:03:28.048Z,29.03
2018-12-27T02:06:33.391Z,26.40
2018-12-27T02:09:38.692Z,27.13
2018-12-27T02:12:44.105Z,25.23
2018-12-27T02:15:49.402Z,24.03
2018-12-27T02:18:54.726Z,24.73
2018-12-27T02:22:00.024Z,19.47
2018-12-27T02:25:05.360Z,21.23
2018-12-27T02:28:10.681Z,18.83
2018-12-27T02:31:16.035Z,16.93
2018-12-27T02:34:21.350Z,17.27
2018-12-27T02:37:26.703Z,17.33
2018-12-27T02:40:32.019Z,18.53
2018-12-27T02:43:37.375Z,19.83
2018-12-27T02:46:42.688Z,16.77
2018-12-27T02:49:48.031Z,16.77
2018-12-27T02:52:53.351Z,16.10
2018-12-27T02:55:58.687Z,16.20
2018-12-27T02:59:04.033Z,15.70
2018-12-27T03:02:09.398Z,17.73
2018-12-27T03:05:14.711Z,17.10
2018-12-27T03:08:20.038Z,16.93
2018-12-27T03:11:25.360Z,15.97
2018-12-27T03:14:30.672Z,16.53
2018-12-27T03:17:35.980Z,17.20
2018-12-27T03:20:41.285Z,16.50
2018-12-27T03:23:46.611Z,17.20
2018-12-27T03:26:51.938Z,15.80
2018-12-27T03:29:57.248Z,14.90
2018-12-27T03:33:02.580Z,15.20
2018-12-27T03:36:07.894Z,15.27
2018-12-27T03:39:13.221Z,15.67
2018-12-27T03:42:18.542Z,14.37
2018-12-27T03:45:23.877Z,15.43
2018-12-27T03:48:29.200Z,14.10
2018-12-27T03:51:34.525Z,15.30
2018-12-27T03:54:39.837Z,15.83
2018-12-27T03:57:45.180Z,15.53
2018-12-27T04:00:50.500Z,12.73
2018-12-27T04:04:01.383Z,13.47
2018-12-27T04:07:02.892Z,13.77
2018-12-27T04:10:08.236Z,13.80
2018-12-27T04:13:13.565Z,15.17
2018-12-27T04:16:18.695Z,15.37
2018-12-27T04:19:23.818Z,15.93
2018-12-27T04:22:28.927Z,13.90
2018-12-27T04:25:34.956Z,17.00
2018-12-27T04:28:40.089Z,12.50
2018-12-27T04:31:47.016Z,12.47
2018-12-27T04:34:53.452Z,11.83
2018-12-27T04:37:58.586Z,11.70
2018-12-27T04:41:03.715Z,12.70
2018-12-27T04:44:09.095Z,12.00
2018-12-27T04:47:14.220Z,11.40
2018-12-27T04:50:19.343Z,12.13
2018-12-27T04:53:24.500Z,10.03
2018-12-27T04:56:29.612Z,9.07
2018-12-27T04:59:34.723Z,10.47
2018-12-27T05:02:39.844Z,11.47
2018-12-27T05:05:44.963Z,9.13
2018-12-27T05:08:50.062Z,11.23
2018-12-27T05:11:55.201Z,11.07
2018-12-27T05:15:00.333Z,9.80
2018-12-27T05:18:05.484Z,9.73
2018-12-27T05:21:10.598Z,10.40
2018-12-27T05:24:15.738Z,10.60
2018-12-27T05:27:20.860Z,11.57
2018-12-27T05:30:26.020Z,13.20
2018-12-27T05:33:31.153Z,14.60
2018-12-27T05:36:36.276Z,13.80
2018-12-27T05:39:41.533Z,15.73
2018-12-27T05:42:46.672Z,14.30
2018-12-27T05:45:51.811Z,16.33
2018-12-27T05:48:56.956Z,20.27
2018-12-27T05:52:02.112Z,17.77
2018-12-27T05:55:07.330Z,20.07
2018-12-27T05:58:12.467Z,20.60
2018-12-27T06:01:17.588Z,21.73
2018-12-27T06:04:22.691Z,22.07
2018-12-27T06:07:27.826Z,25.00
2018-12-27T06:10:32.957Z,25.17
2018-12-27T06:13:38.075Z,28.13
2018-12-27T06:16:43.207Z,27.93
2018-12-27T06:19:48.342Z,28.80
2018-12-27T06:22:53.447Z,30.00
2018-12-27T06:25:58.599Z,30.63
2018-12-27T06:29:03.714Z,29.20
2018-12-27T06:32:08.857Z,30.13
2018-12-27T06:35:13.974Z,30.83
2018-12-27T06:38:19.124Z,28.83
2018-12-27T06:41:24.267Z,27.60
2018-12-27T06:44:29.393Z,29.63
2018-12-27T06:47:34.512Z,31.00
2018-12-27T06:50:39.656Z,29.07
2018-12-27T06:53:44.813Z,27.53
2018-12-27T06:56:49.961Z,28.40
2018-12-27T06:59:55.071Z,29.43
2018-12-27T07:03:00.202Z,28.63
2018-12-27T07:06:05.347Z,29.67
2018-12-27T07:09:10.469Z,27.83
2018-12-27T07:12:15.599Z,25.07
2018-12-27T07:15:20.718Z,29.07
2018-12-27T07:18:25.858Z,26.77
2018-12-27T07:21:30.989Z,31.50
2018-12-27T07:24:36.121Z,27.43
2018-12-27T07:27:41.261Z,27.70
2018-12-27T07:30:46.394Z,26.77
2018-12-27T07:33:51.529Z,27.27
2018-12-27T07:36:56.682Z,26.03
2018-12-27T07:40:01.791Z,26.70
2018-12-27T07:43:06.906Z,26.67
2018-12-27T07:46:12.018Z,28.50
2018-12-27T07:49:17.136Z,26.57
2018-12-27T07:52:22.223Z,25.57
2018-12-27T07:55:27.354Z,25.30
2018-12-27T07:58:32.448Z,25.87
2018-12-27T08:01:37.566Z,24.33
2018-12-27T08:04:42.688Z,24.63
2018-12-27T08:07:47.822Z,26.37
2018-12-27T08:10:52.929Z,26.40
2018-12-27T08:13:58.041Z,27.10
2018-12-27T08:17:03.171Z,24.93
2018-12-27T08:20:08.739Z,24.77
2018-12-27T08:23:13.877Z,25.37
2018-12-27T08:26:18.975Z,23.00
2018-12-27T08:29:24.211Z,25.53
2018-12-27T08:32:29.306Z,24.47
2018-12-27T08:35:34.421Z,26.30
2018-12-27T08:38:39.544Z,26.03
2018-12-27T08:41:44.687Z,26.20
2018-12-27T08:44:49.780Z,27.43
2018-12-27T08:47:54.905Z,24.73
2018-12-27T08:50:59.989Z,29.20
2018-12-27T08:54:05.204Z,26.17
2018-12-27T08:57:10.314Z,28.77
2018-12-27T09:00:15.582Z,26.33
2018-12-27T09:03:20.697Z,26.20
2018-12-27T09:06:25.810Z,23.20
2018-12-27T09:09:30.929Z,21.17
2018-12-27T09:12:36.237Z,28.03
2018-12-27T09:15:41.347Z,24.90
2018-12-27T09:18:46.442Z,26.20
2018-12-27T09:21:51.563Z,26.90
2018-12-27T09:24:56.780Z,26.03
2018-12-27T09:28:01.883Z,23.23
2018-12-27T09:31:07.045Z,27.50
2018-12-27T09:34:12.142Z,26.23
2018-12-27T09:37:17.263Z,24.90
2018-12-27T09:40:22.358Z,26.60
2018-12-27T09:43:27.519Z,26.47
2018-12-27T09:46:32.688Z,24.27
2018-12-27T09:49:37.806Z,25.83
2018-12-27T09:52:42.973Z,26.47
2018-12-27T09:55:48.125Z,27.43
2018-12-27T09:58:53.340Z,28.47
2018-12-27T10:01:58.479Z,27.43
2018-12-27T10:05:03.684Z,26.70
2018-12-27T10:08:08.829Z,27.07
2018-12-27T10:11:13.961Z,28.13
2018-12-27T10:14:19.102Z,24.70
2018-12-27T10:17:24.307Z,26.07
2018-12-27T10:20:29.475Z,25.47
2018-12-27T10:23:34.582Z,27.43
2018-12-27T10:26:39.747Z,26.50
2018-12-27T10:29:44.908Z,25.73
2018-12-27T10:32:50.089Z,24.70
2018-12-27T10:35:55.200Z,25.50
2018-12-27T10:39:09.961Z,24.63
2018-12-27T10:42:15.136Z,25.93
2018-12-27T10:45:20.249Z,23.43
2018-12-27T10:48:25.390Z,21.83
2018-12-27T10:51:30.601Z,22.60
2018-12-27T10:54:35.704Z,23.20
2018-12-27T10:57:40.848Z,25.37
2018-12-27T11:00:45.929Z,24.07
2018-12-27T11:03:51.045Z,24.40
2018-12-27T11:06:57.465Z,24.53
2018-12-27T11:10:02.581Z,25.27
2018-12-27T11:13:07.704Z,23.07
2018-12-27T11:16:12.821Z,24.13
2018-12-27T11:19:17.973Z,25.97
2018-12-27T11:22:23.083Z,22.90
2018-12-27T11:25:28.219Z,27.70
2018-12-27T11:28:33.379Z,25.10
2018-12-27T11:31:38.557Z,24.10
2018-12-27T11:34:43.735Z,22.97
2018-12-27T11:37:48.866Z,23.30
2018-12-27T11:40:53.980Z,24.40
2018-12-27T11:43:59.107Z,23.20
2018-12-27T11:47:04.249Z,23.50
2018-12-27T11:50:09.512Z,21.60
2018-12-27T11:53:14.672Z,22.53
2018-12-27T11:56:19.787Z,22.87
2018-12-27T11:59:24.915Z,19.77
2018-12-27T12:02:31.298Z,23.40
2018-12-27T12:05:36.578Z,22.83
2018-12-27T12:08:41.706Z,22.33
2018-12-27T12:11:46.866Z,19.93
2018-12-27T12:14:52.155Z,23.00
2018-12-27T12:17:57.285Z,24.63
2018-12-27T12:21:02.423Z,21.87
2018-12-27T12:24:07.554Z,24.97
2018-12-27T12:27:12.731Z,25.10
2018-12-27T12:30:18.030Z,24.87
2018-12-27T12:33:23.236Z,22.50
2018-12-27T12:36:28.443Z,26.10
2018-12-27T12:39:33.660Z,27.33
2018-12-27T12:42:38.794Z,26.93
2018-12-27T12:45:43.904Z,24.13
2018-12-27T12:48:49.104Z,24.53
2018-12-27T12:51:54.220Z,26.23
2018-12-27T12:54:59.349Z,26.13
2018-12-27T12:58:04.619Z,24.73
2018-12-27T13:01:09.913Z,28.17
2018-12-27T13:04:15.024Z,25.13
2018-12-27T13:07:20.137Z,24.27
2018-12-27T13:10:25.230Z,22.23
2018-12-27T13:13:30.422Z,25.20
2018-12-27T13:16:35.630Z,26.73
2018-12-27T13:19:40.765Z,25.43
2018-12-27T13:22:45.900Z,26.10
2018-12-27T13:25:51.085Z,25.23
2018-12-27T13:28:56.184Z,24.13
2018-12-27T13:32:01.301Z,24.77
2018-12-27T13:35:06.656Z,25.77
2018-12-27T13:38:11.774Z,23.53
2018-12-27T13:41:17.020Z,23.03
2018-12-27T13:44:22.136Z,22.73
2018-12-27T13:47:27.317Z,22.60
2018-12-27T13:50:32.437Z,20.77
2018-12-27T13:53:37.558Z,23.87
2018-12-27T13:56:42.783Z,23.90
2018-12-27T13:59:47.935Z,25.30
2018-12-27T14:02:53.912Z,57.13
2018-12-27T14:05:59.115Z,91.40
2018-12-27T14:09:05.874Z,57.13
2018-12-27T14:12:11.031Z,221.83
2018-12-27T14:15:16.155Z,195.60
2018-12-27T14:18:21.283Z,64.23
2018-12-27T14:21:26.415Z,249.17
2018-12-27T14:24:31.582Z,84.33
2018-12-27T14:27:36.711Z,70.97
2018-12-27T14:30:41.851Z,58.50
2018-12-27T14:33:46.970Z,36.97
2018-12-27T14:36:52.109Z,48.23
2018-12-27T14:39:57.259Z,116.30
2018-12-27T14:43:02.399Z,68.77
2018-12-27T14:46:07.514Z,134.17
2018-12-27T14:49:12.732Z,89.30
2018-12-27T14:52:17.838Z,46.03
2018-12-27T14:55:22.993Z,59.57
2018-12-27T14:58:28.104Z,43.20
2018-12-27T15:01:33.218Z,28.33
2018-12-27T15:04:38.343Z,33.37
2018-12-27T15:07:43.472Z,26.57
2018-12-27T15:10:48.651Z,29.27
2018-12-27T15:13:53.821Z,27.87
2018-12-27T15:16:58.954Z,59.53
2018-12-27T15:20:04.386Z,48.27
2018-12-27T15:23:09.544Z,40.07
2018-12-27T15:26:14.642Z,205.83
2018-12-27T15:29:19.766Z,39.07
2018-12-27T15:32:24.884Z,58.90
2018-12-27T15:35:30.027Z,51.53
2018-12-27T15:38:35.138Z,44.97
2018-12-27T15:41:40.327Z,53.73
2018-12-27T15:44:45.464Z,70.87
2018-12-27T15:47:50.595Z,234.57
2018-12-27T15:50:55.732Z,259.43
2018-12-27T15:54:00.844Z,36.57
2018-12-27T15:57:06.000Z,113.63
2018-12-27T16:00:11.351Z,98.40
2018-12-27T16:03:16.481Z,592.77
2018-12-27T16:06:21.646Z,493.13
2018-12-27T16:09:26.743Z,477.70
2018-12-27T16:12:31.900Z,785.47
2018-12-27T16:15:37.053Z,410.87
2018-12-27T16:18:42.179Z,255.43
2018-12-27T16:21:47.306Z,145.23
2018-12-27T16:24:52.425Z,76.47
2018-12-27T16:27:57.627Z,126.13
2018-12-27T16:31:02.866Z,31.77
2018-12-27T16:34:07.994Z,31.17
2018-12-27T16:37:13.114Z,63.87
2018-12-27T16:40:18.987Z,55.87
2018-12-27T16:43:24.133Z,106.30
2018-12-27T16:46:29.259Z,48.57
2018-12-27T16:49:34.397Z,249.20
2018-12-27T16:52:39.526Z,352.30
2018-12-27T16:55:44.666Z,290.87
2018-12-27T16:58:49.851Z,516.20
2018-12-27T17:01:54.975Z,585.00
2018-12-27T17:05:00.248Z,295.93
2018-12-27T17:08:05.657Z,389.47
2018-12-27T17:11:10.842Z,85.57
2018-12-27T17:14:15.967Z,294.07
2018-12-27T17:17:21.101Z,195.97
2018-12-27T17:20:26.220Z,222.53
2018-12-27T17:23:31.364Z,404.00
2018-12-27T17:26:36.531Z,171.50
2018-12-27T17:29:41.747Z,366.00
2018-12-27T17:32:46.861Z,458.93
2018-12-27T17:35:52.010Z,354.33
2018-12-27T17:38:57.133Z,693.77
2018-12-27T17:42:02.261Z,404.57
2018-12-27T17:45:07.514Z,137.53
2018-12-27T17:48:12.717Z,265.83
2018-12-27T17:51:17.910Z,44.27
2018-12-27T17:54:23.024Z,24.20
2018-12-27T17:57:28.123Z,26.03
2018-12-27T18:00:33.266Z,23.27
2018-12-27T18:03:38.376Z,24.63
2018-12-27T18:06:43.494Z,22.50
2018-12-27T18:09:48.587Z,22.83
2018-12-27T18:12:53.773Z,28.83
2018-12-27T18:15:58.884Z,28.83
2018-12-27T18:19:04.004Z,41.83
2018-12-27T18:22:09.148Z,31.13
2018-12-27T18:25:14.330Z,25.20
2018-12-27T18:28:19.458Z,27.43
2018-12-27T18:31:24.576Z,24.63
2018-12-27T18:34:29.711Z,28.43
2018-12-27T18:37:37.902Z,23.53
2018-12-27T18:40:41.687Z,22.67
2018-12-27T18:43:46.850Z,23.43
2018-12-27T18:46:51.951Z,24.53
2018-12-27T18:49:57.094Z,25.37
2018-12-27T18:53:02.271Z,21.53
2018-12-27T18:56:07.570Z,23.03
2018-12-27T18:59:12.697Z,24.17
2018-12-27T19:02:17.909Z,20.60
2018-12-27T19:05:23.015Z,21.47
2018-12-27T19:08:28.201Z,20.07
2018-12-27T19:12:27.741Z,20.60
2018-12-27T19:15:36.288Z,19.37
2018-12-27T19:18:46.230Z,16.63
2018-12-27T19:22:19.871Z,17.67
2018-12-27T19:25:25.032Z,16.70
2018-12-27T19:28:30.131Z,18.83
2018-12-27T19:31:35.277Z,17.83
2018-12-27T19:34:40.669Z,19.07
2018-12-27T19:37:51.910Z,16.93
2018-12-27T19:40:52.623Z,15.83
2018-12-27T19:43:57.897Z,16.87
2018-12-27T19:47:03.189Z,20.70
2018-12-27T19:50:08.533Z,26.20
2018-12-27T19:53:13.641Z,39.67
2018-12-27T19:56:18.770Z,22.80
2018-12-27T19:59:23.947Z,18.43
2018-12-27T20:02:29.138Z,15.20
2018-12-27T20:05:34.512Z,15.13
2018-12-27T20:08:39.705Z,13.77
2018-12-27T20:11:44.828Z,12.90
2018-12-27T20:14:49.977Z,11.00
2018-12-27T20:17:55.153Z,12.37
2018-12-27T20:21:00.275Z,11.63
2018-12-27T20:24:05.464Z,13.03
2018-12-27T20:27:10.653Z,10.10
2018-12-27T20:30:16.014Z,11.63
2018-12-27T20:33:21.143Z,12.90
2018-12-27T20:36:26.241Z,12.80
2018-12-27T20:39:31.358Z,13.53
2018-12-27T20:42:36.466Z,11.23
2018-12-27T20:45:41.550Z,12.23
2018-12-27T20:48:46.739Z,12.73
2018-12-27T20:51:51.843Z,12.73
2018-12-27T20:54:57.017Z,12.83
2018-12-27T20:58:02.221Z,12.67
2018-12-27T21:01:07.418Z,12.80
2018-12-27T21:04:12.546Z,13.10
2018-12-27T21:07:17.647Z,14.30
2018-12-27T21:10:22.849Z,12.87
2018-12-27T21:13:27.978Z,14.40
2018-12-27T21:16:33.070Z,14.20
2018-12-27T21:19:38.199Z,13.67
2018-12-27T21:22:43.284Z,14.13
2018-12-27T21:25:48.401Z,12.93
2018-12-27T21:28:53.562Z,11.77
2018-12-27T21:31:58.698Z,12.70
2018-12-27T21:35:03.807Z,19.97
2018-12-27T21:38:09.001Z,39.13
2018-12-27T21:41:14.143Z,19.53
2018-12-27T21:44:19.278Z,24.73
2018-12-27T21:47:24.378Z,33.53
2018-12-27T21:50:29.521Z,22.80
2018-12-27T21:53:34.674Z,35.87
2018-12-27T21:56:39.791Z,25.27
2018-12-27T21:59:44.939Z,22.17
2018-12-27T22:02:50.050Z,22.27
2018-12-27T22:05:55.196Z,21.13
2018-12-27T22:09:00.292Z,16.00
2018-12-27T22:12:05.476Z,16.67
2018-12-27T22:15:10.586Z,16.13
2018-12-27T22:18:15.722Z,16.43
2018-12-27T22:21:20.834Z,15.13
2018-12-27T22:24:26.303Z,16.70
2018-12-27T22:27:31.422Z,21.17
2018-12-27T22:30:36.663Z,20.37
2018-12-27T22:33:41.769Z,14.83
2018-12-27T22:36:46.910Z,12.97
2018-12-27T22:39:52.007Z,14.37
2018-12-27T22:42:57.163Z,21.93
2018-12-27T22:46:02.300Z,19.90
2018-12-27T22:49:07.422Z,27.50
2018-12-27T22:52:12.522Z,25.37
2018-12-27T22:55:17.741Z,22.43
2018-12-27T22:58:22.858Z,13.73
2018-12-27T23:01:28.138Z,15.23
2018-12-27T23:04:33.257Z,13.77
2018-12-27T23:07:38.391Z,19.80
2018-12-27T23:10:43.508Z,12.57
2018-12-27T23:13:48.631Z,13.40
2018-12-27T23:16:53.793Z,12.20
2018-12-27T23:19:58.917Z,12.13
2018-12-27T23:23:04.103Z,14.20
2018-12-27T23:26:09.263Z,13.37
2018-12-27T23:29:14.363Z,12.70
2018-12-27T23:32:19.600Z,13.83
2018-12-27T23:35:24.737Z,13.43
2018-12-27T23:38:29.952Z,17.17
2018-12-27T23:41:35.157Z,17.90
2018-12-27T23:44:40.272Z,17.80
2018-12-27T23:47:45.410Z,19.33
2018-12-27T23:50:50.525Z,17.10
2018-12-27T23:53:55.628Z,15.37
2018-12-27T23:57:00.738Z,20.67
